sensor_id;sensor_type;location;lat;lon;timestamp;pressure;altitude;pressure_sealevel;temperature
27986;BMP280;15453;53.692;10.168;2023-03-26T00:01:12;99796.97;;;11.77
27986;BMP280;15453;53.692;10.168;2023-03-26T00:03:40;99796.13;;;11.76
27986;BMP280;15453;53.692;10.168;2023-03-26T00:06:09;99794.50;;;11.75
27986;BMP280;15453;53.692;10.168;2023-03-26T00:08:35;99795.84;;;11.78
27986;BMP280;15453;53.692;10.168;2023-03-26T00:11:02;99797.22;;;11.75
27986;BMP280;15453;53.692;10.168;2023-03-26T00:13:28;99806.00;;;11.82
27986;BMP280;15453;53.692;10.168;2023-03-26T00:15:53;99806.00;;;11.82
27986;BMP280;15453;53.692;10.168;2023-03-26T00:18:19;99807.09;;;11.82
27986;BMP280;15453;53.692;10.168;2023-03-26T00:20:46;99821.34;;;11.83
27986;BMP280;15453;53.692;10.168;2023-03-26T00:23:12;99842.19;;;11.84
27986;BMP280;15453;53.692;10.168;2023-03-26T00:25:37;99842.19;;;11.84
27986;BMP280;15453;53.692;10.168;2023-03-26T00:28:05;99837.56;;;11.80
27986;BMP280;15453;53.692;10.168;2023-03-26T00:30:31;99837.00;;;11.78
27986;BMP280;15453;53.692;10.168;2023-03-26T00:32:57;99837.00;;;11.78
27986;BMP280;15453;53.692;10.168;2023-03-26T00:35:23;99834.53;;;11.76
27986;BMP280;15453;53.692;10.168;2023-03-26T00:37:48;99835.63;;;11.75
27986;BMP280;15453;53.692;10.168;2023-03-26T00:40:15;99845.25;;;11.73
27986;BMP280;15453;53.692;10.168;2023-03-26T00:42:40;99854.56;;;11.72
27986;BMP280;15453;53.692;10.168;2023-03-26T00:45:06;99854.56;;;11.72
27986;BMP280;15453;53.692;10.168;2023-03-26T00:47:32;99847.16;;;11.72
27986;BMP280;15453;53.692;10.168;2023-03-26T00:49:58;99847.16;;;11.72
27986;BMP280;15453;53.692;10.168;2023-03-26T00:52:23;99846.06;;;11.68
27986;BMP280;15453;53.692;10.168;2023-03-26T00:54:52;99845.25;;;11.68
27986;BMP280;15453;53.692;10.168;2023-03-26T00:57:18;99857.34;;;11.67
27986;BMP280;15453;53.692;10.168;2023-03-26T00:59:47;99868.84;;;11.69
27986;BMP280;15453;53.692;10.168;2023-03-26T01:02:15;99868.84;;;11.69
27986;BMP280;15453;53.692;10.168;2023-03-26T01:04:44;99863.91;;;11.66
27986;BMP280;15453;53.692;10.168;2023-03-26T01:07:14;99861.72;;;11.63
27986;BMP280;15453;53.692;10.168;2023-03-26T01:09:43;99861.72;;;11.63
27986;BMP280;15453;53.692;10.168;2023-03-26T01:12:16;99861.69;;;11.58
27986;BMP280;15453;53.692;10.168;2023-03-26T01:14:43;99872.38;;;11.59
27986;BMP280;15453;53.692;10.168;2023-03-26T01:17:08;99865.03;;;11.60
27986;BMP280;15453;53.692;10.168;2023-03-26T01:22:02;99870.75;;;11.58
27986;BMP280;15453;53.692;10.168;2023-03-26T01:24:29;99878.13;;;11.58
27986;BMP280;15453;53.692;10.168;2023-03-26T01:27:06;99875.13;;;11.59
27986;BMP280;15453;53.692;10.168;2023-03-26T01:29:53;99878.44;;;11.56
27986;BMP280;15453;53.692;10.168;2023-03-26T01:35:17;99880.09;;;11.52
27986;BMP280;15453;53.692;10.168;2023-03-26T01:38:03;99885.84;;;11.51
27986;BMP280;15453;53.692;10.168;2023-03-26T01:40:49;99891.31;;;11.51
27986;BMP280;15453;53.692;10.168;2023-03-26T01:45:59;99883.91;;;11.51
27986;BMP280;15453;53.692;10.168;2023-03-26T01:48:44;99899.25;;;11.47
27986;BMP280;15453;53.692;10.168;2023-03-26T01:51:11;99903.13;;;11.41
27986;BMP280;15453;53.692;10.168;2023-03-26T01:53:44;99913.25;;;11.41
27986;BMP280;15453;53.692;10.168;2023-03-26T01:56:30;99911.63;;;11.35
27986;BMP280;15453;53.692;10.168;2023-03-26T02:04:47;99916.81;;;11.21
27986;BMP280;15453;53.692;10.168;2023-03-26T02:07:24;99925.88;;;11.17
27986;BMP280;15453;53.692;10.168;2023-03-26T02:09:58;99919.03;;;11.14
27986;BMP280;15453;53.692;10.168;2023-03-26T02:12:26;99919.56;;;11.11
27986;BMP280;15453;53.692;10.168;2023-03-26T02:14:53;99917.09;;;11.05
27986;BMP280;15453;53.692;10.168;2023-03-26T02:17:18;99922.25;;;11.01
27986;BMP280;15453;53.692;10.168;2023-03-26T02:19:48;99922.00;;;10.98
27986;BMP280;15453;53.692;10.168;2023-03-26T02:22:13;99926.09;;;10.95
27986;BMP280;15453;53.692;10.168;2023-03-26T02:24:40;99931.31;;;10.97
27986;BMP280;15453;53.692;10.168;2023-03-26T02:27:06;99929.38;;;10.92
27986;BMP280;15453;53.692;10.168;2023-03-26T02:29:33;99927.22;;;10.94
27986;BMP280;15453;53.692;10.168;2023-03-26T02:32:01;99920.34;;;10.92
27986;BMP280;15453;53.692;10.168;2023-03-26T02:34:28;99920.88;;;10.84
27986;BMP280;15453;53.692;10.168;2023-03-26T02:36:54;99917.06;;;10.90
27986;BMP280;15453;53.692;10.168;2023-03-26T02:39:21;99912.41;;;10.90
27986;BMP280;15453;53.692;10.168;2023-03-26T02:41:46;99913.47;;;10.89
27986;BMP280;15453;53.692;10.168;2023-03-26T02:44:11;99921.16;;;10.87
27986;BMP280;15453;53.692;10.168;2023-03-26T02:46:36;99928.00;;;10.85
27986;BMP280;15453;53.692;10.168;2023-03-26T02:49:02;99928.00;;;10.85
27986;BMP280;15453;53.692;10.168;2023-03-26T02:51:27;99917.88;;;10.85
27986;BMP280;15453;53.692;10.168;2023-03-26T02:53:52;99917.03;;;10.85
27986;BMP280;15453;53.692;10.168;2023-03-26T02:56:19;99920.06;;;10.88
27986;BMP280;15453;53.692;10.168;2023-03-26T02:58:44;99918.69;;;10.86
27986;BMP280;15453;53.692;10.168;2023-03-26T03:01:11;99920.88;;;10.84
27986;BMP280;15453;53.692;10.168;2023-03-26T03:03:37;99933.75;;;10.83
27986;BMP280;15453;53.692;10.168;2023-03-26T03:06:02;99927.44;;;10.83
27986;BMP280;15453;53.692;10.168;2023-03-26T03:08:27;99943.88;;;10.83
27986;BMP280;15453;53.692;10.168;2023-03-26T03:11:07;99944.97;;;10.82
27986;BMP280;15453;53.692;10.168;2023-03-26T03:13:33;99939.75;;;10.80
27986;BMP280;15453;53.692;10.168;2023-03-26T03:15:58;99929.91;;;10.79
27986;BMP280;15453;53.692;10.168;2023-03-26T03:18:23;99937.28;;;10.79
27986;BMP280;15453;53.692;10.168;2023-03-26T03:20:49;99935.09;;;10.76
27986;BMP280;15453;53.692;10.168;2023-03-26T03:23:14;99942.75;;;10.74
27986;BMP280;15453;53.692;10.168;2023-03-26T03:25:40;99931.78;;;10.69
27986;BMP280;15453;53.692;10.168;2023-03-26T03:28:05;99934.78;;;10.67
27986;BMP280;15453;53.692;10.168;2023-03-26T03:30:31;99938.63;;;10.66
27986;BMP280;15453;53.692;10.168;2023-03-26T03:32:56;99930.41;;;10.61
27986;BMP280;15453;53.692;10.168;2023-03-26T03:35:23;99931.50;;;10.60
27986;BMP280;15453;53.692;10.168;2023-03-26T03:37:48;99934.78;;;10.57
27986;BMP280;15453;53.692;10.168;2023-03-26T03:40:14;99932.03;;;10.57
27986;BMP280;15453;53.692;10.168;2023-03-26T03:42:39;99944.09;;;10.56
27986;BMP280;15453;53.692;10.168;2023-03-26T03:45:05;99944.09;;;10.56
27986;BMP280;15453;53.692;10.168;2023-03-26T03:47:30;99929.81;;;10.54
27986;BMP280;15453;53.692;10.168;2023-03-26T03:49:56;99932.56;;;10.54
27986;BMP280;15453;53.692;10.168;2023-03-26T03:52:25;99941.63;;;10.55
27986;BMP280;15453;53.692;10.168;2023-03-26T03:54:51;99948.44;;;10.52
27986;BMP280;15453;53.692;10.168;2023-03-26T03:57:16;99949.25;;;10.53
27986;BMP280;15453;53.692;10.168;2023-03-26T03:59:43;99944.88;;;10.52
27986;BMP280;15453;53.692;10.168;2023-03-26T04:02:08;99939.13;;;10.48
27986;BMP280;15453;53.692;10.168;2023-03-26T04:04:35;99948.13;;;10.49
27986;BMP280;15453;53.692;10.168;2023-03-26T04:07:01;99935.56;;;10.48
27986;BMP280;15453;53.692;10.168;2023-03-26T04:09:27;99945.38;;;10.44
27986;BMP280;15453;53.692;10.168;2023-03-26T04:11:52;99934.44;;;10.44
27986;BMP280;15453;53.692;10.168;2023-03-26T04:14:17;99934.44;;;10.44
27986;BMP280;15453;53.692;10.168;2023-03-26T04:16:42;99925.13;;;10.40
27986;BMP280;15453;53.692;10.168;2023-03-26T04:19:08;99927.84;;;10.40
27986;BMP280;15453;53.692;10.168;2023-03-26T04:21:33;99919.13;;;10.43
27986;BMP280;15453;53.692;10.168;2023-03-26T04:24:03;99930.06;;;10.43
27986;BMP280;15453;53.692;10.168;2023-03-26T04:26:29;99934.72;;;10.47
27986;BMP280;15453;53.692;10.168;2023-03-26T04:28:57;99934.72;;;10.47
27986;BMP280;15453;53.692;10.168;2023-03-26T04:31:24;99914.19;;;10.45
27986;BMP280;15453;53.692;10.168;2023-03-26T04:33:54;99924.88;;;10.46
27986;BMP280;15453;53.692;10.168;2023-03-26T04:36:30;99916.91;;;10.45
27986;BMP280;15453;53.692;10.168;2023-03-26T04:38:59;99919.66;;;10.45
27986;BMP280;15453;53.692;10.168;2023-03-26T04:41:27;99916.13;;;10.49
27986;BMP280;15453;53.692;10.168;2023-03-26T04:43:53;99916.13;;;10.49
27986;BMP280;15453;53.692;10.168;2023-03-26T04:46:19;99917.50;;;10.47
27986;BMP280;15453;53.692;10.168;2023-03-26T04:48:49;99905.72;;;10.46
27986;BMP280;15453;53.692;10.168;2023-03-26T04:51:16;99915.56;;;10.47
27986;BMP280;15453;53.692;10.168;2023-03-26T04:53:57;99916.66;;;10.46
27986;BMP280;15453;53.692;10.168;2023-03-26T04:56:49;99927.34;;;10.48
27986;BMP280;15453;53.692;10.168;2023-03-26T05:01:51;99924.88;;;10.46
27986;BMP280;15453;53.692;10.168;2023-03-26T05:04:17;99927.06;;;10.44
27986;BMP280;15453;53.692;10.168;2023-03-26T05:06:42;99928.69;;;10.40
27986;BMP280;15453;53.692;10.168;2023-03-26T05:09:08;99925.63;;;10.37
27986;BMP280;15453;53.692;10.168;2023-03-26T05:11:35;99927.25;;;10.33
27986;BMP280;15453;53.692;10.168;2023-03-26T05:14:00;99927.56;;;10.31
27986;BMP280;15453;53.692;10.168;2023-03-26T05:16:26;99930.25;;;10.26
27986;BMP280;15453;53.692;10.168;2023-03-26T05:18:52;99919.84;;;10.23
27986;BMP280;15453;53.692;10.168;2023-03-26T05:21:18;99928.31;;;10.22
27986;BMP280;15453;53.692;10.168;2023-03-26T05:23:43;99928.31;;;10.22
27986;BMP280;15453;53.692;10.168;2023-03-26T05:26:10;99926.38;;;10.17
27986;BMP280;15453;53.692;10.168;2023-03-26T05:28:35;99926.38;;;10.17
27986;BMP280;15453;53.692;10.168;2023-03-26T05:31:01;99930.19;;;10.11
27986;BMP280;15453;53.692;10.168;2023-03-26T05:33:27;99933.44;;;10.08
27986;BMP280;15453;53.692;10.168;2023-03-26T05:38:26;99937.78;;;10.04
27986;BMP280;15453;53.692;10.168;2023-03-26T05:40:59;99943.84;;;10.06
27986;BMP280;15453;53.692;10.168;2023-03-26T05:43:26;99951.22;;;10.06
27986;BMP280;15453;53.692;10.168;2023-03-26T05:45:52;99938.63;;;10.05
27986;BMP280;15453;53.692;10.168;2023-03-26T05:48:17;99941.38;;;10.05
27986;BMP280;15453;53.692;10.168;2023-03-26T05:50:43;99944.66;;;10.07
27986;BMP280;15453;53.692;10.168;2023-03-26T05:53:08;99940.03;;;10.07
27986;BMP280;15453;53.692;10.168;2023-03-26T05:55:33;99941.66;;;10.08
27986;BMP280;15453;53.692;10.168;2023-03-26T05:57:59;99943.56;;;10.08
27986;BMP280;15453;53.692;10.168;2023-03-26T06:00:25;99946.59;;;10.06
27986;BMP280;15453;53.692;10.168;2023-03-26T06:02:50;99948.47;;;10.06
27986;BMP280;15453;53.692;10.168;2023-03-26T06:05:16;99953.97;;;10.06
27986;BMP280;15453;53.692;10.168;2023-03-26T06:07:41;99953.13;;;10.05
27986;BMP280;15453;53.692;10.168;2023-03-26T06:10:07;99959.16;;;10.07
27986;BMP280;15453;53.692;10.168;2023-03-26T06:12:33;99959.72;;;10.09
27986;BMP280;15453;53.692;10.168;2023-03-26T06:14:58;99970.13;;;10.12
27986;BMP280;15453;53.692;10.168;2023-03-26T06:17:23;99960.84;;;10.13
27986;BMP280;15453;53.692;10.168;2023-03-26T06:19:49;99965.19;;;10.14
27986;BMP280;15453;53.692;10.168;2023-03-26T06:22:14;99960.84;;;10.18
27986;BMP280;15453;53.692;10.168;2023-03-26T06:24:39;99972.09;;;10.17
27986;BMP280;15453;53.692;10.168;2023-03-26T06:27:05;99964.41;;;10.19
27986;BMP280;15453;53.692;10.168;2023-03-26T06:29:30;99963.91;;;10.22
27986;BMP280;15453;53.692;10.168;2023-03-26T06:31:55;99978.38;;;10.22
27986;BMP280;15453;53.692;10.168;2023-03-26T06:34:20;99973.75;;;10.23
27986;BMP280;15453;53.692;10.168;2023-03-26T06:36:46;99974.59;;;10.23
27986;BMP280;15453;53.692;10.168;2023-03-26T06:39:13;99980.06;;;10.23
27986;BMP280;15453;53.692;10.168;2023-03-26T06:41:38;99975.94;;;10.21
27986;BMP280;15453;53.692;10.168;2023-03-26T06:44:03;99985.47;;;10.18
27986;BMP280;15453;53.692;10.168;2023-03-26T06:46:29;99984.41;;;10.19
27986;BMP280;15453;53.692;10.168;2023-03-26T06:48:54;99984.16;;;10.21
27986;BMP280;15453;53.692;10.168;2023-03-26T06:51:19;99988.78;;;10.20
27986;BMP280;15453;53.692;10.168;2023-03-26T06:53:45;99981.41;;;10.21
27986;BMP280;15453;53.692;10.168;2023-03-26T06:56:10;99982.47;;;10.20
27986;BMP280;15453;53.692;10.168;2023-03-26T06:58:35;99994.25;;;10.20
27986;BMP280;15453;53.692;10.168;2023-03-26T07:01:00;99991.53;;;10.20
27986;BMP280;15453;53.692;10.168;2023-03-26T07:03:26;99996.16;;;10.20
27986;BMP280;15453;53.692;10.168;2023-03-26T07:05:51;99998.09;;;10.19
27986;BMP280;15453;53.692;10.168;2023-03-26T07:08:16;100000.81;;;10.19
27986;BMP280;15453;53.692;10.168;2023-03-26T07:10:41;100001.88;;;10.18
27986;BMP280;15453;53.692;10.168;2023-03-26T07:13:07;99999.72;;;10.20
27986;BMP280;15453;53.692;10.168;2023-03-26T07:15:32;99994.25;;;10.20
27986;BMP280;15453;53.692;10.168;2023-03-26T07:17:57;99990.69;;;10.20
27986;BMP280;15453;53.692;10.168;2023-03-26T07:20:23;99998.03;;;10.14
27986;BMP280;15453;53.692;10.168;2023-03-26T07:22:49;99998.63;;;10.16
27986;BMP280;15453;53.692;10.168;2023-03-26T07:25:16;100000.25;;;10.17
27986;BMP280;15453;53.692;10.168;2023-03-26T07:27:58;99990.94;;;10.18
27986;BMP280;15453;53.692;10.168;2023-03-26T07:30:51;100001.88;;;10.18
27986;BMP280;15453;53.692;10.168;2023-03-26T07:33:57;99998.63;;;10.16
27986;BMP280;15453;53.692;10.168;2023-03-26T07:36:34;99992.31;;;10.16
27986;BMP280;15453;53.692;10.168;2023-03-26T07:39:13;100006.53;;;10.13
27986;BMP280;15453;53.692;10.168;2023-03-26T07:41:54;99997.22;;;10.14
27986;BMP280;15453;53.692;10.168;2023-03-26T07:46:59;100007.66;;;10.17
27986;BMP280;15453;53.692;10.168;2023-03-26T07:49:26;100004.09;;;10.16
27986;BMP280;15453;53.692;10.168;2023-03-26T07:51:53;100000.81;;;10.19
27986;BMP280;15453;53.692;10.168;2023-03-26T07:54:18;100002.44;;;10.15
27986;BMP280;15453;53.692;10.168;2023-03-26T07:56:51;100001.09;;;10.18
27986;BMP280;15453;53.692;10.168;2023-03-26T07:59:39;100006.56;;;10.18
27986;BMP280;15453;53.692;10.168;2023-03-26T08:02:45;100000.81;;;10.19
27986;BMP280;15453;53.692;10.168;2023-03-26T08:05:27;100005.47;;;10.19
27986;BMP280;15453;53.692;10.168;2023-03-26T08:08:20;100001.38;;;10.21
27986;BMP280;15453;53.692;10.168;2023-03-26T08:16:13;100003.31;;;10.21
27986;BMP280;15453;53.692;10.168;2023-03-26T08:18:59;100005.19;;;10.15
27986;BMP280;15453;53.692;10.168;2023-03-26T08:21:36;99997.50;;;10.17
27986;BMP280;15453;53.692;10.168;2023-03-26T08:26:58;100002.50;;;10.25
27986;BMP280;15453;53.692;10.168;2023-03-26T08:32:04;100003.09;;;10.32
27986;BMP280;15453;53.692;10.168;2023-03-26T08:34:32;100004.22;;;10.36
27986;BMP280;15453;53.692;10.168;2023-03-26T08:36:57;100006.38;;;10.39
27986;BMP280;15453;53.692;10.168;2023-03-26T08:39:22;99992.19;;;10.42
27986;BMP280;15453;53.692;10.168;2023-03-26T08:53:31;100007.06;;;10.56
27986;BMP280;15453;53.692;10.168;2023-03-26T09:07:43;100001.56;;;10.56
27986;BMP280;15453;53.692;10.168;2023-03-26T09:22:02;99993.66;;;10.70
27986;BMP280;15453;53.692;10.168;2023-03-26T09:25:12;99999.19;;;10.80
27986;BMP280;15453;53.692;10.168;2023-03-26T09:31:02;99990.16;;;10.79
27986;BMP280;15453;53.692;10.168;2023-03-26T09:33:52;99998.38;;;10.79
27986;BMP280;15453;53.692;10.168;2023-03-26T09:36:31;99992.09;;;10.84
27986;BMP280;15453;53.692;10.168;2023-03-26T09:39:16;99989.63;;;10.87
27986;BMP280;15453;53.692;10.168;2023-03-26T09:41:58;99989.38;;;10.94
27986;BMP280;15453;53.692;10.168;2023-03-26T09:44:41;99991.59;;;11.02
27986;BMP280;15453;53.692;10.168;2023-03-26T09:58:23;99998.22;;;11.31
27986;BMP280;15453;53.692;10.168;2023-03-26T10:00:54;99987.56;;;11.39
27986;BMP280;15453;53.692;10.168;2023-03-26T10:03:32;99995.53;;;11.51
27986;BMP280;15453;53.692;10.168;2023-03-26T10:14:27;99996.91;;;11.83
27986;BMP280;15453;53.692;10.168;2023-03-26T10:19:52;100004.59;;;11.92
27986;BMP280;15453;53.692;10.168;2023-03-26T10:22:55;100015.28;;;11.93
27986;BMP280;15453;53.692;10.168;2023-03-26T10:36:39;100015.28;;;11.78
27986;BMP280;15453;53.692;10.168;2023-03-26T10:44:52;100007.34;;;11.76
27986;BMP280;15453;53.692;10.168;2023-03-26T10:53:10;99996.63;;;11.95
27986;BMP280;15453;53.692;10.168;2023-03-26T10:55:43;99997.44;;;12.06
27986;BMP280;15453;53.692;10.168;2023-03-26T10:58:23;100011.69;;;12.18
27986;BMP280;15453;53.692;10.168;2023-03-26T11:01:01;100009.75;;;12.28
27986;BMP280;15453;53.692;10.168;2023-03-26T11:03:50;100006.44;;;12.31
27986;BMP280;15453;53.692;10.168;2023-03-26T11:11:58;100012.22;;;12.30
27986;BMP280;15453;53.692;10.168;2023-03-26T11:14:42;99995.19;;;12.33
27986;BMP280;15453;53.692;10.168;2023-03-26T11:17:54;100002.03;;;12.40
27986;BMP280;15453;53.692;10.168;2023-03-26T11:20:47;100004.50;;;12.42
27986;BMP280;15453;53.692;10.168;2023-03-26T11:28:54;100022.03;;;12.56
27986;BMP280;15453;53.692;10.168;2023-03-26T11:31:53;100017.13;;;12.53
27986;BMP280;15453;53.692;10.168;2023-03-26T11:34:36;100010.78;;;12.52
27986;BMP280;15453;53.692;10.168;2023-03-26T11:37:06;100000.91;;;12.51
27986;BMP280;15453;53.692;10.168;2023-03-26T11:39:44;99997.03;;;12.57
27986;BMP280;15453;53.692;10.168;2023-03-26T11:42:12;100001.41;;;12.68
27986;BMP280;15453;53.692;10.168;2023-03-26T11:44:41;99997.75;;;12.83
27986;BMP280;15453;53.692;10.168;2023-03-26T11:47:09;99993.59;;;12.90
27986;BMP280;15453;53.692;10.168;2023-03-26T11:49:36;100004.28;;;12.97
27986;BMP280;15453;53.692;10.168;2023-03-26T11:52:02;100015.53;;;13.05
27986;BMP280;15453;53.692;10.168;2023-03-26T11:54:28;100006.72;;;13.08
27986;BMP280;15453;53.692;10.168;2023-03-26T11:56:56;100006.44;;;13.10
27986;BMP280;15453;53.692;10.168;2023-03-26T11:59:29;100004.25;;;13.12
27986;BMP280;15453;53.692;10.168;2023-03-26T12:04:34;99999.78;;;13.21
27986;BMP280;15453;53.692;10.168;2023-03-26T12:07:12;99989.78;;;13.40
27986;BMP280;15453;53.692;10.168;2023-03-26T12:12:16;99983.97;;;13.41
27986;BMP280;15453;53.692;10.168;2023-03-26T12:14:42;99982.78;;;13.52
27986;BMP280;15453;53.692;10.168;2023-03-26T12:17:12;99984.59;;;13.67
27986;BMP280;15453;53.692;10.168;2023-03-26T12:19:43;99993.91;;;13.71
27986;BMP280;15453;53.692;10.168;2023-03-26T12:25:12;99982.88;;;13.76
27986;BMP280;15453;53.692;10.168;2023-03-26T12:27:56;99981.97;;;13.85
27986;BMP280;15453;53.692;10.168;2023-03-26T12:30:36;99979.72;;;13.87
27986;BMP280;15453;53.692;10.168;2023-03-26T12:33:09;99982.47;;;13.92
27986;BMP280;15453;53.692;10.168;2023-03-26T12:35:38;99977.69;;;13.98
27986;BMP280;15453;53.692;10.168;2023-03-26T12:41:08;99975.78;;;13.98
27986;BMP280;15453;53.692;10.168;2023-03-26T12:43:40;99982.63;;;14.01
27986;BMP280;15453;53.692;10.168;2023-03-26T12:46:29;99971.91;;;13.99
27986;BMP280;15453;53.692;10.168;2023-03-26T12:49:02;99980.16;;;13.99
27986;BMP280;15453;53.692;10.168;2023-03-26T12:57:23;99979.50;;;14.12
27986;BMP280;15453;53.692;10.168;2023-03-26T13:00:20;99961.81;;;14.18
27986;BMP280;15453;53.692;10.168;2023-03-26T13:14:07;99970.28;;;14.27
27986;BMP280;15453;53.692;10.168;2023-03-26T13:19:33;99962.78;;;14.32
27986;BMP280;15453;53.692;10.168;2023-03-26T13:22:12;99961.91;;;14.37
27986;BMP280;15453;53.692;10.168;2023-03-26T13:30:28;99962.56;;;14.52
27986;BMP280;15453;53.692;10.168;2023-03-26T13:33:13;99968.69;;;14.68
27986;BMP280;15453;53.692;10.168;2023-03-26T13:38:48;99964.84;;;14.69
27986;BMP280;15453;53.692;10.168;2023-03-26T13:44:32;99948.81;;;14.71
27986;BMP280;15453;53.692;10.168;2023-03-26T13:47:05;99950.09;;;14.78
27986;BMP280;15453;53.692;10.168;2023-03-26T13:49:43;99952.81;;;14.83
27986;BMP280;15453;53.692;10.168;2023-03-26T13:52:19;99956.84;;;14.91
27986;BMP280;15453;53.692;10.168;2023-03-26T13:54:50;99953.50;;;14.94
27986;BMP280;15453;53.692;10.168;2023-03-26T13:57:32;99950.66;;;14.99
27986;BMP280;15453;53.692;10.168;2023-03-26T14:00:03;99947.59;;;15.00
27986;BMP280;15453;53.692;10.168;2023-03-26T14:02:38;99951.16;;;15.01
27986;BMP280;15453;53.692;10.168;2023-03-26T14:05:15;99951.72;;;15.03
27986;BMP280;15453;53.692;10.168;2023-03-26T14:07:48;99949.25;;;15.01
27986;BMP280;15453;53.692;10.168;2023-03-26T14:10:18;99952.22;;;15.05
27986;BMP280;15453;53.692;10.168;2023-03-26T14:12:51;99950.28;;;15.05
27986;BMP280;15453;53.692;10.168;2023-03-26T14:15:23;99958.84;;;15.04
27986;BMP280;15453;53.692;10.168;2023-03-26T14:17:59;99963.81;;;15.02
27986;BMP280;15453;53.692;10.168;2023-03-26T14:20:41;99973.22;;;15.01
27986;BMP280;15453;53.692;10.168;2023-03-26T14:23:37;99969.06;;;15.03
27986;BMP280;15453;53.692;10.168;2023-03-26T14:26:32;99962.44;;;15.04
27986;BMP280;15453;53.692;10.168;2023-03-26T14:29:16;99968.25;;;15.03
27986;BMP280;15453;53.692;10.168;2023-03-26T14:38:11;99975.22;;;14.95
27986;BMP280;15453;53.692;10.168;2023-03-26T14:44:10;99981.41;;;14.87
27986;BMP280;15453;53.692;10.168;2023-03-26T14:49:53;99976.31;;;14.76
27986;BMP280;15453;53.692;10.168;2023-03-26T14:55:09;99966.66;;;14.97
27986;BMP280;15453;53.692;10.168;2023-03-26T14:58:00;99966.97;;;15.14
27986;BMP280;15453;53.692;10.168;2023-03-26T15:01:05;99963.91;;;15.34
27986;BMP280;15453;53.692;10.168;2023-03-26T15:09:54;99967.44;;;17.03
27986;BMP280;15453;53.692;10.168;2023-03-26T15:18:32;99976.72;;;17.56
27986;BMP280;15453;53.692;10.168;2023-03-26T15:30:13;99976.22;;;17.18
27986;BMP280;15453;53.692;10.168;2023-03-26T15:33:24;99981.88;;;17.13
27986;BMP280;15453;53.692;10.168;2023-03-26T15:36:04;99977.97;;;17.14
27986;BMP280;15453;53.692;10.168;2023-03-26T15:38:58;99978.50;;;17.03
27986;BMP280;15453;53.692;10.168;2023-03-26T15:41:50;99978.50;;;17.03
27986;BMP280;15453;53.692;10.168;2023-03-26T15:44:31;99979.34;;;16.90
27986;BMP280;15453;53.692;10.168;2023-03-26T15:50:07;99984.97;;;16.58
27986;BMP280;15453;53.692;10.168;2023-03-26T15:52:37;99990.56;;;16.39
27986;BMP280;15453;53.692;10.168;2023-03-26T15:55:21;99991.75;;;16.20
27986;BMP280;15453;53.692;10.168;2023-03-26T16:00:27;99997.28;;;15.88
27986;BMP280;15453;53.692;10.168;2023-03-26T16:03:10;100002.44;;;15.62
27986;BMP280;15453;53.692;10.168;2023-03-26T16:08:37;100007.34;;;15.47
27986;BMP280;15453;53.692;10.168;2023-03-26T16:11:05;100010.19;;;15.42
27986;BMP280;15453;53.692;10.168;2023-03-26T16:18:31;100019.00;;;15.20
27986;BMP280;15453;53.692;10.168;2023-03-26T16:23:34;100013.78;;;15.00
27986;BMP280;15453;53.692;10.168;2023-03-26T16:36:47;100012.97;;;14.53
27986;BMP280;15453;53.692;10.168;2023-03-26T16:39:18;100019.06;;;14.50
27986;BMP280;15453;53.692;10.168;2023-03-26T16:41:58;100019.41;;;14.43
27986;BMP280;15453;53.692;10.168;2023-03-26T16:44:40;100023.09;;;14.34
27986;BMP280;15453;53.692;10.168;2023-03-26T16:47:18;100025.41;;;14.22
27986;BMP280;15453;53.692;10.168;2023-03-26T16:52:35;100035.63;;;14.16
27986;BMP280;15453;53.692;10.168;2023-03-26T16:58:02;100051.75;;;13.99
27986;BMP280;15453;53.692;10.168;2023-03-26T17:00:43;100051.75;;;13.99
27986;BMP280;15453;53.692;10.168;2023-03-26T17:03:22;100049.31;;;13.93
27986;BMP280;15453;53.692;10.168;2023-03-26T17:08:28;100059.03;;;13.85
27986;BMP280;15453;53.692;10.168;2023-03-26T17:11:26;100065.94;;;13.83
27986;BMP280;15453;53.692;10.168;2023-03-26T17:14:07;100071.72;;;13.81
27986;BMP280;15453;53.692;10.168;2023-03-26T17:16:42;100071.19;;;13.74
27986;BMP280;15453;53.692;10.168;2023-03-26T17:19:25;100073.72;;;13.71
27986;BMP280;15453;53.692;10.168;2023-03-26T17:21:59;100072.66;;;13.67
27986;BMP280;15453;53.692;10.168;2023-03-26T17:24:41;100076.25;;;13.62
27986;BMP280;15453;53.692;10.168;2023-03-26T17:27:25;100078.50;;;13.55
27986;BMP280;15453;53.692;10.168;2023-03-26T17:33:04;100088.47;;;13.41
27986;BMP280;15453;53.692;10.168;2023-03-26T17:35:41;100089.34;;;13.37
27986;BMP280;15453;53.692;10.168;2023-03-26T17:40:47;100099.88;;;13.20
27986;BMP280;15453;53.692;10.168;2023-03-26T17:45:58;100112.84;;;13.09
27986;BMP280;15453;53.692;10.168;2023-03-26T17:48:26;100120.00;;;13.05
27986;BMP280;15453;53.692;10.168;2023-03-26T17:50:57;100120.00;;;13.05
27986;BMP280;15453;53.692;10.168;2023-03-26T17:53:30;100118.63;;;12.93
27986;BMP280;15453;53.692;10.168;2023-03-26T17:56:00;100136.78;;;12.94
27986;BMP280;15453;53.692;10.168;2023-03-26T17:58:34;100134.59;;;12.91
27986;BMP280;15453;53.692;10.168;2023-03-26T18:01:18;100134.59;;;12.91
27986;BMP280;15453;53.692;10.168;2023-03-26T18:03:48;100131.28;;;12.84
27986;BMP280;15453;53.692;10.168;2023-03-26T18:06:39;100144.78;;;12.80
27986;BMP280;15453;53.692;10.168;2023-03-26T18:09:36;100144.78;;;12.80
27986;BMP280;15453;53.692;10.168;2023-03-26T18:12:21;100151.38;;;12.74
27986;BMP280;15453;53.692;10.168;2023-03-26T18:17:44;100155.50;;;12.67
27986;BMP280;15453;53.692;10.168;2023-03-26T18:20:22;100158.00;;;12.63
27986;BMP280;15453;53.692;10.168;2023-03-26T18:22:48;100170.34;;;12.61
27986;BMP280;15453;53.692;10.168;2023-03-26T18:25:25;100170.34;;;12.61
27986;BMP280;15453;53.692;10.168;2023-03-26T18:27:51;100164.03;;;12.55
27986;BMP280;15453;53.692;10.168;2023-03-26T18:30:19;100182.44;;;12.55
27986;BMP280;15453;53.692;10.168;2023-03-26T18:33:01;100182.44;;;12.55
27986;BMP280;15453;53.692;10.168;2023-03-26T18:35:38;100170.09;;;12.47